sensor_id;sensor_type;location;lat;lon;timestamp;temperature;humidity
75994;DHT22;64680;53.800;9.988;2023-02-01T00:01:43;4.20;73.60
75994;DHT22;64680;53.800;9.988;2023-02-01T00:04:09;4.20;74.60
75994;DHT22;64680;53.800;9.988;2023-02-01T00:06:34;4.20;75.90
75994;DHT22;64680;53.800;9.988;2023-02-01T00:09:00;4.10;77.20
75994;DHT22;64680;53.800;9.988;2023-02-01T00:11:26;4.10;78.20
75994;DHT22;64680;53.800;9.988;2023-02-01T00:13:51;4.10;78.60
75994;DHT22;64680;53.800;9.988;2023-02-01T00:16:25;4.20;77.90
75994;DHT22;64680;53.800;9.988;2023-02-01T00:18:52;4.10;77.60
75994;DHT22;64680;53.800;9.988;2023-02-01T00:21:21;4.20;76.50
75994;DHT22;64680;53.800;9.988;2023-02-01T00:23:46;4.10;75.90
75994;DHT22;64680;53.800;9.988;2023-02-01T00:26:23;4.20;72.40
75994;DHT22;64680;53.800;9.988;2023-02-01T00:28:51;4.20;70.60
75994;DHT22;64680;53.800;9.988;2023-02-01T00:31:16;4.20;69.80
75994;DHT22;64680;53.800;9.988;2023-02-01T00:33:42;4.20;71.20
75994;DHT22;64680;53.800;9.988;2023-02-01T00:36:13;4.10;73.70
75994;DHT22;64680;53.800;9.988;2023-02-01T00:38:39;4.00;77.00
75994;DHT22;64680;53.800;9.988;2023-02-01T00:41:17;4.10;78.60
75994;DHT22;64680;53.800;9.988;2023-02-01T00:43:43;4.10;80.00
75994;DHT22;64680;53.800;9.988;2023-02-01T00:46:10;4.10;80.70
75994;DHT22;64680;53.800;9.988;2023-02-01T00:48:36;4.10;81.50
75994;DHT22;64680;53.800;9.988;2023-02-01T00:51:05;4.10;81.30
75994;DHT22;64680;53.800;9.988;2023-02-01T00:53:31;4.20;80.30
75994;DHT22;64680;53.800;9.988;2023-02-01T00:55:57;4.20;79.50
75994;DHT22;64680;53.800;9.988;2023-02-01T00:58:23;4.30;78.30
75994;DHT22;64680;53.800;9.988;2023-02-01T01:01:03;4.30;78.70
75994;DHT22;64680;53.800;9.988;2023-02-01T01:03:31;4.30;77.90
75994;DHT22;64680;53.800;9.988;2023-02-01T01:05:59;4.40;77.90
75994;DHT22;64680;53.800;9.988;2023-02-01T01:08:25;4.40;78.70
75994;DHT22;64680;53.800;9.988;2023-02-01T01:10:51;4.40;77.50
75994;DHT22;64680;53.800;9.988;2023-02-01T01:13:16;4.50;77.40
75994;DHT22;64680;53.800;9.988;2023-02-01T01:15:42;4.50;77.10
75994;DHT22;64680;53.800;9.988;2023-02-01T01:18:08;4.50;76.20
75994;DHT22;64680;53.800;9.988;2023-02-01T01:20:35;4.50;75.10
75994;DHT22;64680;53.800;9.988;2023-02-01T01:23:02;4.50;74.80
75994;DHT22;64680;53.800;9.988;2023-02-01T01:25:27;4.50;75.10
75994;DHT22;64680;53.800;9.988;2023-02-01T01:27:53;4.50;76.00
75994;DHT22;64680;53.800;9.988;2023-02-01T01:30:18;4.50;76.30
75994;DHT22;64680;53.800;9.988;2023-02-01T01:32:44;4.50;77.60
75994;DHT22;64680;53.800;9.988;2023-02-01T01:35:10;4.50;77.70
75994;DHT22;64680;53.800;9.988;2023-02-01T01:37:36;4.50;77.70
75994;DHT22;64680;53.800;9.988;2023-02-01T01:40:03;4.40;78.40
75994;DHT22;64680;53.800;9.988;2023-02-01T01:42:29;4.40;78.80
75994;DHT22;64680;53.800;9.988;2023-02-01T01:47:46;4.40;79.60
75994;DHT22;64680;53.800;9.988;2023-02-01T01:50:17;4.50;79.20
75994;DHT22;64680;53.800;9.988;2023-02-01T01:52:46;4.50;79.80
75994;DHT22;64680;53.800;9.988;2023-02-01T01:55:15;4.50;79.70
75994;DHT22;64680;53.800;9.988;2023-02-01T01:57:44;4.50;79.20
75994;DHT22;64680;53.800;9.988;2023-02-01T02:00:14;4.50;79.20
75994;DHT22;64680;53.800;9.988;2023-02-01T02:02:43;4.50;79.60
75994;DHT22;64680;53.800;9.988;2023-02-01T02:05:10;4.50;78.80
75994;DHT22;64680;53.800;9.988;2023-02-01T02:07:40;4.60;78.00
75994;DHT22;64680;53.800;9.988;2023-02-01T02:10:09;4.70;77.60
75994;DHT22;64680;53.800;9.988;2023-02-01T02:12:38;4.70;77.10
75994;DHT22;64680;53.800;9.988;2023-02-01T02:15:06;4.60;77.10
75994;DHT22;64680;53.800;9.988;2023-02-01T02:17:46;4.60;77.50
75994;DHT22;64680;53.800;9.988;2023-02-01T02:20:27;4.60;77.00
75994;DHT22;64680;53.800;9.988;2023-02-01T02:40:04;4.60;78.50
75994;DHT22;64680;53.800;9.988;2023-02-01T02:42:50;4.60;79.00
75994;DHT22;64680;53.800;9.988;2023-02-01T02:46:04;4.60;80.00
75994;DHT22;64680;53.800;9.988;2023-02-01T02:51:38;4.50;78.40
75994;DHT22;64680;53.800;9.988;2023-02-01T02:54:29;4.40;79.50
75994;DHT22;64680;53.800;9.988;2023-02-01T03:00:06;4.10;86.40
75994;DHT22;64680;53.800;9.988;2023-02-01T03:02:52;3.90;91.30
75994;DHT22;64680;53.800;9.988;2023-02-01T03:05:41;3.80;94.50
75994;DHT22;64680;53.800;9.988;2023-02-01T03:08:21;3.80;95.60
75994;DHT22;64680;53.800;9.988;2023-02-01T03:11:07;3.80;96.10
75994;DHT22;64680;53.800;9.988;2023-02-01T03:21:47;3.70;98.70
75994;DHT22;64680;53.800;9.988;2023-02-01T03:24:21;3.70;99.30
75994;DHT22;64680;53.800;9.988;2023-02-01T03:26:55;3.70;99.90
75994;DHT22;64680;53.800;9.988;2023-02-01T03:29:45;3.70;99.90
75994;DHT22;64680;53.800;9.988;2023-02-01T03:32:13;3.70;99.90
75994;DHT22;64680;53.800;9.988;2023-02-01T03:34:39;3.80;99.90
75994;DHT22;64680;53.800;9.988;2023-02-01T03:37:09;3.80;99.90
75994;DHT22;64680;53.800;9.988;2023-02-01T03:39:57;3.80;99.90
75994;DHT22;64680;53.800;9.988;2023-02-01T03:42:30;3.80;99.90
75994;DHT22;64680;53.800;9.988;2023-02-01T03:45:17;3.80;99.90
75994;DHT22;64680;53.800;9.988;2023-02-01T03:47:47;3.90;99.90
75994;DHT22;64680;53.800;9.988;2023-02-01T03:50:16;3.90;96.20
75994;DHT22;64680;53.800;9.988;2023-02-01T03:52:43;3.80;96.30
75994;DHT22;64680;53.800;9.988;2023-02-01T03:55:11;3.60;98.10
75994;DHT22;64680;53.800;9.988;2023-02-01T03:57:43;3.60;97.80
75994;DHT22;64680;53.800;9.988;2023-02-01T04:00:17;3.40;97.30
75994;DHT22;64680;53.800;9.988;2023-02-01T04:02:43;3.40;97.70
75994;DHT22;64680;53.800;9.988;2023-02-01T04:05:08;3.30;98.10
75994;DHT22;64680;53.800;9.988;2023-02-01T04:07:34;3.20;98.80
75994;DHT22;64680;53.800;9.988;2023-02-01T04:09:59;3.20;99.20
75994;DHT22;64680;53.800;9.988;2023-02-01T04:12:25;3.10;99.40
75994;DHT22;64680;53.800;9.988;2023-02-01T04:14:50;3.10;99.80
75994;DHT22;64680;53.800;9.988;2023-02-01T04:17:16;3.10;99.90
75994;DHT22;64680;53.800;9.988;2023-02-01T04:19:41;3.20;99.90
75994;DHT22;64680;53.800;9.988;2023-02-01T04:22:07;3.20;99.90
75994;DHT22;64680;53.800;9.988;2023-02-01T04:24:33;3.30;99.90
75994;DHT22;64680;53.800;9.988;2023-02-01T04:26:58;3.30;99.90
75994;DHT22;64680;53.800;9.988;2023-02-01T04:29:24;3.30;99.90
75994;DHT22;64680;53.800;9.988;2023-02-01T04:31:49;3.30;99.90
75994;DHT22;64680;53.800;9.988;2023-02-01T04:34:15;3.40;99.90
75994;DHT22;64680;53.800;9.988;2023-02-01T04:36:41;3.50;99.90
75994;DHT22;64680;53.800;9.988;2023-02-01T04:39:08;3.50;99.90
75994;DHT22;64680;53.800;9.988;2023-02-01T04:41:33;3.60;99.90
75994;DHT22;64680;53.800;9.988;2023-02-01T04:43:59;3.60;99.90
75994;DHT22;64680;53.800;9.988;2023-02-01T04:46:25;3.70;99.90
75994;DHT22;64680;53.800;9.988;2023-02-01T04:48:50;3.70;99.90
75994;DHT22;64680;53.800;9.988;2023-02-01T04:51:16;3.80;99.90
75994;DHT22;64680;53.800;9.988;2023-02-01T04:53:43;3.80;99.90
75994;DHT22;64680;53.800;9.988;2023-02-01T04:56:09;3.80;99.90
75994;DHT22;64680;53.800;9.988;2023-02-01T04:58:35;3.80;99.90
75994;DHT22;64680;53.800;9.988;2023-02-01T05:01:04;3.80;99.90
75994;DHT22;64680;53.800;9.988;2023-02-01T05:03:31;3.80;99.90
75994;DHT22;64680;53.800;9.988;2023-02-01T05:05:57;3.70;99.90
75994;DHT22;64680;53.800;9.988;2023-02-01T05:08:23;3.70;99.90
75994;DHT22;64680;53.800;9.988;2023-02-01T05:10:50;3.60;99.90
75994;DHT22;64680;53.800;9.988;2023-02-01T05:13:16;3.60;99.10
75994;DHT22;64680;53.800;9.988;2023-02-01T05:16:00;3.60;98.90
75994;DHT22;64680;53.800;9.988;2023-02-01T05:18:25;3.50;98.80
75994;DHT22;64680;53.800;9.988;2023-02-01T05:20:51;3.50;99.20
75994;DHT22;64680;53.800;9.988;2023-02-01T05:23:17;3.50;99.50
75994;DHT22;64680;53.800;9.988;2023-02-01T05:25:42;3.50;99.80
75994;DHT22;64680;53.800;9.988;2023-02-01T05:28:08;3.50;99.90
75994;DHT22;64680;53.800;9.988;2023-02-01T05:30:33;3.50;99.90
75994;DHT22;64680;53.800;9.988;2023-02-01T05:33:00;3.50;99.90
75994;DHT22;64680;53.800;9.988;2023-02-01T05:35:26;3.50;99.80
75994;DHT22;64680;53.800;9.988;2023-02-01T05:37:51;3.50;99.40
75994;DHT22;64680;53.800;9.988;2023-02-01T05:40:17;3.50;98.10
75994;DHT22;64680;53.800;9.988;2023-02-01T05:42:43;3.50;98.10
75994;DHT22;64680;53.800;9.988;2023-02-01T05:45:08;3.40;98.30
75994;DHT22;64680;53.800;9.988;2023-02-01T05:47:34;3.40;98.90
75994;DHT22;64680;53.800;9.988;2023-02-01T05:50:00;3.20;98.30
75994;DHT22;64680;53.800;9.988;2023-02-01T05:52:25;3.20;97.80
75994;DHT22;64680;53.800;9.988;2023-02-01T05:54:51;3.10;98.50
75994;DHT22;64680;53.800;9.988;2023-02-01T05:57:17;3.10;98.50
75994;DHT22;64680;53.800;9.988;2023-02-01T05:59:43;3.00;98.80
75994;DHT22;64680;53.800;9.988;2023-02-01T06:02:13;2.90;99.10
75994;DHT22;64680;53.800;9.988;2023-02-01T06:04:39;2.90;99.20
75994;DHT22;64680;53.800;9.988;2023-02-01T06:07:05;2.80;99.40
75994;DHT22;64680;53.800;9.988;2023-02-01T06:09:33;2.80;99.60
75994;DHT22;64680;53.800;9.988;2023-02-01T06:11:59;2.80;99.80
75994;DHT22;64680;53.800;9.988;2023-02-01T06:14:26;2.80;99.90
75994;DHT22;64680;53.800;9.988;2023-02-01T06:16:53;2.80;99.90
75994;DHT22;64680;53.800;9.988;2023-02-01T06:19:19;2.80;99.90
75994;DHT22;64680;53.800;9.988;2023-02-01T06:21:45;2.90;99.90
75994;DHT22;64680;53.800;9.988;2023-02-01T06:24:11;2.80;99.90
75994;DHT22;64680;53.800;9.988;2023-02-01T06:26:36;2.80;99.90
75994;DHT22;64680;53.800;9.988;2023-02-01T06:29:02;2.80;99.90
75994;DHT22;64680;53.800;9.988;2023-02-01T06:31:28;2.80;99.90
75994;DHT22;64680;53.800;9.988;2023-02-01T06:33:53;2.80;99.90
75994;DHT22;64680;53.800;9.988;2023-02-01T06:36:19;2.70;99.90
75994;DHT22;64680;53.800;9.988;2023-02-01T06:38:47;2.70;99.90
75994;DHT22;64680;53.800;9.988;2023-02-01T06:41:13;2.80;99.90
75994;DHT22;64680;53.800;9.988;2023-02-01T06:43:38;2.80;99.90
75994;DHT22;64680;53.800;9.988;2023-02-01T06:46:07;2.80;99.90
75994;DHT22;64680;53.800;9.988;2023-02-01T06:48:33;2.80;99.90
75994;DHT22;64680;53.800;9.988;2023-02-01T06:50:59;2.80;99.90
75994;DHT22;64680;53.800;9.988;2023-02-01T06:53:25;2.90;99.90
75994;DHT22;64680;53.800;9.988;2023-02-01T06:55:55;2.90;99.90
75994;DHT22;64680;53.800;9.988;2023-02-01T06:58:22;2.90;99.90
75994;DHT22;64680;53.800;9.988;2023-02-01T07:00:48;3.00;99.90
75994;DHT22;64680;53.800;9.988;2023-02-01T07:03:14;3.10;99.90
75994;DHT22;64680;53.800;9.988;2023-02-01T07:05:39;3.10;99.90
75994;DHT22;64680;53.800;9.988;2023-02-01T07:08:05;3.10;99.90
75994;DHT22;64680;53.800;9.988;2023-02-01T07:10:30;3.20;99.90
75994;DHT22;64680;53.800;9.988;2023-02-01T07:12:57;3.20;99.90
75994;DHT22;64680;53.800;9.988;2023-02-01T07:15:23;3.20;99.90
75994;DHT22;64680;53.800;9.988;2023-02-01T07:17:48;3.30;99.90
75994;DHT22;64680;53.800;9.988;2023-02-01T07:20:15;3.40;99.90
75994;DHT22;64680;53.800;9.988;2023-02-01T07:22:41;3.40;99.90
75994;DHT22;64680;53.800;9.988;2023-02-01T07:25:07;3.40;99.90
75994;DHT22;64680;53.800;9.988;2023-02-01T07:27:36;3.50;99.90
75994;DHT22;64680;53.800;9.988;2023-02-01T07:30:02;3.70;99.90
75994;DHT22;64680;53.800;9.988;2023-02-01T07:32:29;3.70;99.90
75994;DHT22;64680;53.800;9.988;2023-02-01T07:34:55;3.70;99.90
75994;DHT22;64680;53.800;9.988;2023-02-01T07:37:20;3.80;99.90
75994;DHT22;64680;53.800;9.988;2023-02-01T07:39:46;3.80;99.90
75994;DHT22;64680;53.800;9.988;2023-02-01T07:42:11;3.80;99.90
75994;DHT22;64680;53.800;9.988;2023-02-01T07:44:37;3.90;99.90
75994;DHT22;64680;53.800;9.988;2023-02-01T07:47:02;4.00;99.90
75994;DHT22;64680;53.800;9.988;2023-02-01T07:49:28;4.10;98.80
75994;DHT22;64680;53.800;9.988;2023-02-01T07:51:54;4.20;96.50
75994;DHT22;64680;53.800;9.988;2023-02-01T07:54:19;4.20;95.80
75994;DHT22;64680;53.800;9.988;2023-02-01T07:56:45;4.30;96.10
75994;DHT22;64680;53.800;9.988;2023-02-01T07:59:10;4.30;96.60
75994;DHT22;64680;53.800;9.988;2023-02-01T08:01:37;4.20;96.70
75994;DHT22;64680;53.800;9.988;2023-02-01T08:04:03;4.20;96.30
75994;DHT22;64680;53.800;9.988;2023-02-01T08:06:31;4.20;96.10
75994;DHT22;64680;53.800;9.988;2023-02-01T08:08:57;4.20;96.10
75994;DHT22;64680;53.800;9.988;2023-02-01T08:11:24;4.20;95.50
75994;DHT22;64680;53.800;9.988;2023-02-01T08:13:50;4.20;96.00
75994;DHT22;64680;53.800;9.988;2023-02-01T08:16:18;4.20;95.10
75994;DHT22;64680;53.800;9.988;2023-02-01T08:18:44;4.20;95.40
75994;DHT22;64680;53.800;9.988;2023-02-01T08:23:38;4.30;94.80
75994;DHT22;64680;53.800;9.988;2023-02-01T08:28:38;4.30;92.70
75994;DHT22;64680;53.800;9.988;2023-02-01T08:31:06;4.40;93.30
75994;DHT22;64680;53.800;9.988;2023-02-01T08:33:32;4.40;93.60
75994;DHT22;64680;53.800;9.988;2023-02-01T08:36:00;4.40;93.00
75994;DHT22;64680;53.800;9.988;2023-02-01T08:38:26;4.40;92.80
75994;DHT22;64680;53.800;9.988;2023-02-01T08:40:52;4.40;90.40
75994;DHT22;64680;53.800;9.988;2023-02-01T08:43:18;4.30;90.80
75994;DHT22;64680;53.800;9.988;2023-02-01T08:45:44;4.20;89.10
75994;DHT22;64680;53.800;9.988;2023-02-01T08:48:09;4.00;88.20
75994;DHT22;64680;53.800;9.988;2023-02-01T08:50:35;3.80;86.70
75994;DHT22;64680;53.800;9.988;2023-02-01T08:53:00;3.80;88.70
75994;DHT22;64680;53.800;9.988;2023-02-01T08:55:26;3.70;90.70
75994;DHT22;64680;53.800;9.988;2023-02-01T08:57:53;3.70;89.50
75994;DHT22;64680;53.800;9.988;2023-02-01T09:00:18;3.80;89.30
75994;DHT22;64680;53.800;9.988;2023-02-01T09:02:44;3.80;91.50
75994;DHT22;64680;53.800;9.988;2023-02-01T09:05:12;3.80;90.80
75994;DHT22;64680;53.800;9.988;2023-02-01T09:07:39;3.70;91.70
75994;DHT22;64680;53.800;9.988;2023-02-01T09:10:05;3.70;92.10
75994;DHT22;64680;53.800;9.988;2023-02-01T09:12:33;3.60;92.70
75994;DHT22;64680;53.800;9.988;2023-02-01T09:14:58;3.40;94.40
75994;DHT22;64680;53.800;9.988;2023-02-01T09:17:29;3.30;93.90
75994;DHT22;64680;53.800;9.988;2023-02-01T09:19:54;3.30;95.70
75994;DHT22;64680;53.800;9.988;2023-02-01T09:22:20;3.40;96.80
75994;DHT22;64680;53.800;9.988;2023-02-01T09:24:46;3.50;97.30
75994;DHT22;64680;53.800;9.988;2023-02-01T09:27:11;3.60;97.40
75994;DHT22;64680;53.800;9.988;2023-02-01T09:29:37;3.70;97.70
75994;DHT22;64680;53.800;9.988;2023-02-01T09:32:03;3.80;97.90
75994;DHT22;64680;53.800;9.988;2023-02-01T09:34:28;3.90;98.20
75994;DHT22;64680;53.800;9.988;2023-02-01T09:36:54;4.00;98.00
75994;DHT22;64680;53.800;9.988;2023-02-01T09:39:20;4.20;98.70
75994;DHT22;64680;53.800;9.988;2023-02-01T09:47:50;5.10;93.00
75994;DHT22;64680;53.800;9.988;2023-02-01T09:50:22;5.00;92.20
75994;DHT22;64680;53.800;9.988;2023-02-01T09:52:55;5.00;90.00
75994;DHT22;64680;53.800;9.988;2023-02-01T09:58:00;5.10;91.30
75994;DHT22;64680;53.800;9.988;2023-02-01T10:00:30;5.20;90.70
75994;DHT22;64680;53.800;9.988;2023-02-01T10:02:59;5.20;91.10
75994;DHT22;64680;53.800;9.988;2023-02-01T10:05:55;5.30;90.60
75994;DHT22;64680;53.800;9.988;2023-02-01T10:16:48;5.30;87.40
75994;DHT22;64680;53.800;9.988;2023-02-01T10:22:28;5.30;91.80
75994;DHT22;64680;53.800;9.988;2023-02-01T10:25:23;5.40;88.50
75994;DHT22;64680;53.800;9.988;2023-02-01T10:27:51;5.50;86.70
75994;DHT22;64680;53.800;9.988;2023-02-01T10:30:23;5.50;87.00
75994;DHT22;64680;53.800;9.988;2023-02-01T10:32:55;5.50;87.00
75994;DHT22;64680;53.800;9.988;2023-02-01T10:35:29;5.50;88.30
75994;DHT22;64680;53.800;9.988;2023-02-01T10:37:58;5.40;88.20
75994;DHT22;64680;53.800;9.988;2023-02-01T10:40:26;5.40;89.80
75994;DHT22;64680;53.800;9.988;2023-02-01T10:43:00;5.40;86.90
75994;DHT22;64680;53.800;9.988;2023-02-01T10:45:32;5.40;86.60
75994;DHT22;64680;53.800;9.988;2023-02-01T10:48:00;5.20;88.70
75994;DHT22;64680;53.800;9.988;2023-02-01T10:55:52;5.00;92.50
75994;DHT22;64680;53.800;9.988;2023-02-01T11:01:03;4.90;93.80
75994;DHT22;64680;53.800;9.988;2023-02-01T11:03:44;5.00;93.70
75994;DHT22;64680;53.800;9.988;2023-02-01T11:06:29;5.10;93.20
75994;DHT22;64680;53.800;9.988;2023-02-01T11:08:57;5.20;91.40
75994;DHT22;64680;53.800;9.988;2023-02-01T11:11:24;5.30;90.30
75994;DHT22;64680;53.800;9.988;2023-02-01T11:13:58;5.40;88.80
75994;DHT22;64680;53.800;9.988;2023-02-01T11:16:36;5.30;90.80
75994;DHT22;64680;53.800;9.988;2023-02-01T11:19:04;5.20;90.90
75994;DHT22;64680;53.800;9.988;2023-02-01T11:21:30;5.00;90.50
75994;DHT22;64680;53.800;9.988;2023-02-01T11:24:01;4.80;87.80
75994;DHT22;64680;53.800;9.988;2023-02-01T11:26:27;4.70;91.00
75994;DHT22;64680;53.800;9.988;2023-02-01T11:28:58;4.70;93.70
75994;DHT22;64680;53.800;9.988;2023-02-01T11:31:26;4.70;95.50
75994;DHT22;64680;53.800;9.988;2023-02-01T11:33:58;4.80;94.90
75994;DHT22;64680;53.800;9.988;2023-02-01T11:36:27;4.90;96.10
75994;DHT22;64680;53.800;9.988;2023-02-01T11:41:59;5.00;93.20
75994;DHT22;64680;53.800;9.988;2023-02-01T11:44:37;5.10;93.90
75994;DHT22;64680;53.800;9.988;2023-02-01T11:47:24;5.00;92.90
75994;DHT22;64680;53.800;9.988;2023-02-01T11:49:55;5.10;92.40
75994;DHT22;64680;53.800;9.988;2023-02-01T12:00:21;4.60;91.20
75994;DHT22;64680;53.800;9.988;2023-02-01T12:05:31;4.70;93.20
75994;DHT22;64680;53.800;9.988;2023-02-01T12:08:09;4.70;94.80
75994;DHT22;64680;53.800;9.988;2023-02-01T12:10:47;4.70;94.70
75994;DHT22;64680;53.800;9.988;2023-02-01T12:24:44;4.90;89.90
75994;DHT22;64680;53.800;9.988;2023-02-01T12:32:48;4.40;94.40
75994;DHT22;64680;53.800;9.988;2023-02-01T12:40:53;4.00;96.50
75994;DHT22;64680;53.800;9.988;2023-02-01T12:44:01;4.00;95.50
75994;DHT22;64680;53.800;9.988;2023-02-01T12:46:41;3.80;96.40
75994;DHT22;64680;53.800;9.988;2023-02-01T12:49:16;3.80;96.50
75994;DHT22;64680;53.800;9.988;2023-02-01T12:51:46;3.80;97.00
75994;DHT22;64680;53.800;9.988;2023-02-01T12:56:50;3.60;97.00
75994;DHT22;64680;53.800;9.988;2023-02-01T13:01:58;3.50;97.90
75994;DHT22;64680;53.800;9.988;2023-02-01T13:07:09;3.50;98.40
75994;DHT22;64680;53.800;9.988;2023-02-01T13:09:57;3.60;98.80
75994;DHT22;64680;53.800;9.988;2023-02-01T13:12:54;3.60;98.50
75994;DHT22;64680;53.800;9.988;2023-02-01T13:15:36;3.60;98.80
75994;DHT22;64680;53.800;9.988;2023-02-01T13:18:05;3.70;98.30
75994;DHT22;64680;53.800;9.988;2023-02-01T13:20:55;3.70;97.90
75994;DHT22;64680;53.800;9.988;2023-02-01T13:23:27;3.70;97.00
75994;DHT22;64680;53.800;9.988;2023-02-01T13:25:54;3.70;97.30
75994;DHT22;64680;53.800;9.988;2023-02-01T13:28:24;3.70;97.40
75994;DHT22;64680;53.800;9.988;2023-02-01T13:39:20;3.60;97.10
75994;DHT22;64680;53.800;9.988;2023-02-01T13:42:03;3.60;95.90
75994;DHT22;64680;53.800;9.988;2023-02-01T13:44:58;3.50;96.30
75994;DHT22;64680;53.800;9.988;2023-02-01T13:47:28;3.50;95.60
75994;DHT22;64680;53.800;9.988;2023-02-01T13:49:58;3.50;95.20
75994;DHT22;64680;53.800;9.988;2023-02-01T13:52:31;3.50;95.40
75994;DHT22;64680;53.800;9.988;2023-02-01T13:55:31;3.40;93.70
75994;DHT22;64680;53.800;9.988;2023-02-01T13:58:04;3.40;93.50
75994;DHT22;64680;53.800;9.988;2023-02-01T14:00:36;3.40;94.40
75994;DHT22;64680;53.800;9.988;2023-02-01T14:03:07;3.40;94.50
75994;DHT22;64680;53.800;9.988;2023-02-01T14:18:49;3.40;96.00
75994;DHT22;64680;53.800;9.988;2023-02-01T14:21:33;3.40;95.80
75994;DHT22;64680;53.800;9.988;2023-02-01T14:24:24;3.30;94.90
75994;DHT22;64680;53.800;9.988;2023-02-01T14:26:52;3.20;95.80
75994;DHT22;64680;53.800;9.988;2023-02-01T14:29:32;3.10;97.60
75994;DHT22;64680;53.800;9.988;2023-02-01T14:32:18;3.10;97.50
75994;DHT22;64680;53.800;9.988;2023-02-01T14:44:39;3.30;96.90
75994;DHT22;64680;53.800;9.988;2023-02-01T14:50:07;3.30;96.80
75994;DHT22;64680;53.800;9.988;2023-02-01T14:52:39;3.30;96.80
75994;DHT22;64680;53.800;9.988;2023-02-01T14:55:40;3.30;97.30
75994;DHT22;64680;53.800;9.988;2023-02-01T15:00:52;3.40;96.10
75994;DHT22;64680;53.800;9.988;2023-02-01T15:03:23;3.50;95.30
75994;DHT22;64680;53.800;9.988;2023-02-01T15:05:58;3.50;96.10
75994;DHT22;64680;53.800;9.988;2023-02-01T15:08:31;3.50;94.50
75994;DHT22;64680;53.800;9.988;2023-02-01T15:11:01;3.60;94.80
75994;DHT22;64680;53.800;9.988;2023-02-01T15:13:29;3.60;93.40
75994;DHT22;64680;53.800;9.988;2023-02-01T15:16:14;3.60;92.60
75994;DHT22;64680;53.800;9.988;2023-02-01T15:18:41;3.60;93.60
75994;DHT22;64680;53.800;9.988;2023-02-01T15:21:23;3.60;93.80
75994;DHT22;64680;53.800;9.988;2023-02-01T15:23:50;3.70;93.50
75994;DHT22;64680;53.800;9.988;2023-02-01T15:26:34;3.70;93.20
75994;DHT22;64680;53.800;9.988;2023-02-01T15:29:00;3.70;93.90
75994;DHT22;64680;53.800;9.988;2023-02-01T15:31:52;3.70;94.60
75994;DHT22;64680;53.800;9.988;2023-02-01T15:34:19;3.60;95.90
75994;DHT22;64680;53.800;9.988;2023-02-01T15:36:46;3.50;96.40
75994;DHT22;64680;53.800;9.988;2023-02-01T15:42:09;3.60;96.90
75994;DHT22;64680;53.800;9.988;2023-02-01T15:44:40;3.60;97.00
75994;DHT22;64680;53.800;9.988;2023-02-01T15:49:45;3.60;96.20
75994;DHT22;64680;53.800;9.988;2023-02-01T15:54:52;3.60;94.70
75994;DHT22;64680;53.800;9.988;2023-02-01T15:57:28;3.60;95.00
75994;DHT22;64680;53.800;9.988;2023-02-01T15:59:59;3.60;94.80
75994;DHT22;64680;53.800;9.988;2023-02-01T16:04:53;3.60;94.20
75994;DHT22;64680;53.800;9.988;2023-02-01T16:07:28;3.60;94.00
75994;DHT22;64680;53.800;9.988;2023-02-01T16:09:56;3.50;94.30
75994;DHT22;64680;53.800;9.988;2023-02-01T16:14:56;3.50;93.50
75994;DHT22;64680;53.800;9.988;2023-02-01T16:17:22;3.50;93.10
75994;DHT22;64680;53.800;9.988;2023-02-01T16:19:48;3.50;93.00
75994;DHT22;64680;53.800;9.988;2023-02-01T16:22:13;3.60;93.40
75994;DHT22;64680;53.800;9.988;2023-02-01T16:24:39;3.60;92.10
75994;DHT22;64680;53.800;9.988;2023-02-01T16:27:05;3.70;92.00
75994;DHT22;64680;53.800;9.988;2023-02-01T16:29:32;3.70;90.70
75994;DHT22;64680;53.800;9.988;2023-02-01T16:31:58;3.80;91.00
75994;DHT22;64680;53.800;9.988;2023-02-01T16:34:25;3.80;90.50
75994;DHT22;64680;53.800;9.988;2023-02-01T16:36:51;3.90;90.20
75994;DHT22;64680;53.800;9.988;2023-02-01T16:39:18;3.90;89.40
75994;DHT22;64680;53.800;9.988;2023-02-01T16:41:44;3.90;89.80
75994;DHT22;64680;53.800;9.988;2023-02-01T16:44:10;4.00;90.10
75994;DHT22;64680;53.800;9.988;2023-02-01T16:46:40;3.90;90.00
75994;DHT22;64680;53.800;9.988;2023-02-01T16:49:22;3.90;89.60
75994;DHT22;64680;53.800;9.988;2023-02-01T16:51:50;3.90;89.00
75994;DHT22;64680;53.800;9.988;2023-02-01T16:54:18;3.80;89.10
75994;DHT22;64680;53.800;9.988;2023-02-01T16:56:45;3.80;88.90
75994;DHT22;64680;53.800;9.988;2023-02-01T16:59:11;3.80;88.60
75994;DHT22;64680;53.800;9.988;2023-02-01T17:01:37;3.90;87.90
75994;DHT22;64680;53.800;9.988;2023-02-01T17:04:04;3.90;87.50
75994;DHT22;64680;53.800;9.988;2023-02-01T17:06:30;4.00;84.60
75994;DHT22;64680;53.800;9.988;2023-02-01T17:08:58;4.10;83.70
75994;DHT22;64680;53.800;9.988;2023-02-01T17:11:25;4.10;83.00
75994;DHT22;64680;53.800;9.988;2023-02-01T17:13:52;4.20;81.50
75994;DHT22;64680;53.800;9.988;2023-02-01T17:18:46;4.20;81.10
75994;DHT22;64680;53.800;9.988;2023-02-01T17:21:12;4.20;81.80
75994;DHT22;64680;53.800;9.988;2023-02-01T17:23:38;4.30;81.70
75994;DHT22;64680;53.800;9.988;2023-02-01T17:26:04;4.30;79.80
75994;DHT22;64680;53.800;9.988;2023-02-01T17:28:30;4.30;77.90
75994;DHT22;64680;53.800;9.988;2023-02-01T17:30:56;4.30;76.90
75994;DHT22;64680;53.800;9.988;2023-02-01T17:33:28;4.40;75.00
75994;DHT22;64680;53.800;9.988;2023-02-01T17:35:55;4.30;77.70
75994;DHT22;64680;53.800;9.988;2023-02-01T17:38:21;4.30;75.00
75994;DHT22;64680;53.800;9.988;2023-02-01T17:40:48;4.40;74.70
75994;DHT22;64680;53.800;9.988;2023-02-01T17:43:15;4.30;76.80
75994;DHT22;64680;53.800;9.988;2023-02-01T17:46:11;4.30;74.70
75994;DHT22;64680;53.800;9.988;2023-02-01T17:48:37;4.40;76.40
75994;DHT22;64680;53.800;9.988;2023-02-01T17:51:04;4.40;76.50
75994;DHT22;64680;53.800;9.988;2023-02-01T17:53:30;4.40;77.50
75994;DHT22;64680;53.800;9.988;2023-02-01T17:55:58;4.40;78.50
75994;DHT22;64680;53.800;9.988;2023-02-01T17:58:24;4.30;85.10
75994;DHT22;64680;53.800;9.988;2023-02-01T18:00:51;4.20;83.90
75994;DHT22;64680;53.800;9.988;2023-02-01T18:05:48;4.00;86.00
75994;DHT22;64680;53.800;9.988;2023-02-01T18:08:17;4.00;87.10
75994;DHT22;64680;53.800;9.988;2023-02-01T18:10:43;4.00;83.90
75994;DHT22;64680;53.800;9.988;2023-02-01T18:13:10;3.90;84.20
75994;DHT22;64680;53.800;9.988;2023-02-01T18:15:36;3.80;83.70
75994;DHT22;64680;53.800;9.988;2023-02-01T18:18:03;3.80;82.20
75994;DHT22;64680;53.800;9.988;2023-02-01T18:20:29;3.80;85.30
75994;DHT22;64680;53.800;9.988;2023-02-01T18:22:54;3.70;86.20
75994;DHT22;64680;53.800;9.988;2023-02-01T18:25:22;3.70;86.50
75994;DHT22;64680;53.800;9.988;2023-02-01T18:27:50;3.70;87.00
75994;DHT22;64680;53.800;9.988;2023-02-01T18:30:23;3.70;86.50
75994;DHT22;64680;53.800;9.988;2023-02-01T18:32:49;3.80;84.60
75994;DHT22;64680;53.800;9.988;2023-02-01T18:35:24;3.90;83.50
75994;DHT22;64680;53.800;9.988;2023-02-01T18:37:50;3.90;83.50
75994;DHT22;64680;53.800;9.988;2023-02-01T18:40:27;4.00;82.60
75994;DHT22;64680;53.800;9.988;2023-02-01T18:42:54;4.00;82.30
75994;DHT22;64680;53.800;9.988;2023-02-01T18:45:34;4.00;83.00
75994;DHT22;64680;53.800;9.988;2023-02-01T18:48:01;4.10;81.80